Terminal Aerodrome Forecast
Issued by NWS Shreveport, LA

Home | Current Version | Previous Version | Text Only | Print | Product List | Glossary On
Versions: 1 2 3 4 5 6 7 8 9 10 11 12 13 14 15 16 17 18 19 20 21 22 23 24 25 26
410
FTUS44 KSHV 201124
TAFSHV
TAF
KSHV 201124Z 2012/2112 17015G25KT P6SM SCT020 BKN250
      TEMPO 2012/2016 17012G18KT BKN015 OVC040
     FM210200 18012KT P6SM VCSH BKN050
     FM210900 03010KT 3SM TSRA BR OVC020CB=

USA.gov is the U.S. government's official web portal to all federal, state and local government web resources and services.